Guadalupe, Arizona
Current Conditions -  °F | °C
As of 9:51 AM on Wednesday 26 Nov 2014 (Local Time) from KPHX Reporting Station
Clear Clear  
Wind Chill: 56°   Ceiling: Unl
Heat Index: 56°   Visibility: 10mi
Dew Point: 16°   Wind: 5mph
Humidity: 21%   Direction: 70°ENE
Pressure: 30.31"   Gusts: NA
Location:  33.364°N, 111.931°W
Report Text: KPHX 261651Z 07004KT 10SM CLR 13/M09 A3031 RMK AO2 SLP260 T01331089
Loading
Personal Weather Stations






























Interactive Weather Map New forecast layout! Learn more

10-Day Weather Forecast

Advertisements
Track Severe Weather on mobile